Terminal Aerodrome Forecast
Issued by NWS

Home | Current Version | Previous Version | Text Only | Print | Product List | Glossary On
Versions: 1 2 3 4 5 6 7 8 9 10 11 12 13 14 15 16 17 18
147
FTUS41 KCAR 060204 AAA
TAFPQI
TAF AMD
KPQI 060204Z 0602/0624 04009KT P6SM VCSH OVC025
     FM061100 02009KT P6SM OVC035
     FM061500 01009KT P6SM SCT045 BKN100
     FM061800 36005KT P6SM FEW050 SCT120=

USA.gov is the U.S. government's official web portal to all federal, state and local government web resources and services.